Time;durP1;ratioP1;P1;durP2;ratioP2;P2;SDS_P1;SDS_P2;PMS_P1;PMS_P2;Temp;Humidity;BMP_temperature;BMP_pressure;BME280_temperature;BME280_humidity;BME280_pressure;Samples;Min_cycle;Max_cycle;Signal;HPM_P1;HPM_P2
2021/03/08 00:01:20;;;;;;;6.88;3.50;;;;;;;2.43;58.63;99968.28;5001358;28;20149;-70
2021/03/08 00:03:46;;;;;;;6.55;3.80;;;;;;;2.41;58.51;99960.56;4984152;28;20134;-72
2021/03/08 00:06:15;;;;;;;5.05;3.25;;;;;;;2.39;58.73;99967.59;4984055;28;20104;-70
2021/03/08 00:08:41;;;;;;;7.03;3.90;;;;;;;2.36;58.80;99962.53;4982710;28;20046;-68
2021/03/08 00:11:08;;;;;;;8.05;4.25;;;;;;;2.38;59.01;99971.13;4985340;28;20137;-71
2021/03/08 00:13:34;;;;;;;9.55;4.13;;;;;;;2.37;59.43;99966.81;4984413;28;20046;-70
2021/03/08 00:16:01;;;;;;;5.57;4.03;;;;;;;2.35;59.09;99960.81;4984286;28;20145;-70
2021/03/08 00:18:27;;;;;;;8.13;4.18;;;;;;;2.37;59.03;99971.19;4984877;28;20078;-69
2021/03/08 00:20:54;;;;;;;5.90;4.65;;;;;;;2.34;59.29;99966.09;4984381;28;20145;-70
2021/03/08 00:23:21;;;;;;;8.73;4.47;;;;;;;2.34;59.35;99966.97;4981671;28;20056;-70
2021/03/08 00:25:48;;;;;;;7.50;3.85;;;;;;;2.35;59.72;99959.97;4984721;28;20078;-69
2021/03/08 00:28:14;;;;;;;6.22;3.15;;;;;;;2.41;59.01;99952.75;4983886;28;20145;-71
2021/03/08 00:30:41;;;;;;;5.40;3.58;;;;;;;2.42;59.29;99957.03;4984358;28;20534;-70
2021/03/08 00:33:07;;;;;;;7.40;3.30;;;;;;;2.50;59.24;99964.50;4985334;28;20050;-68
2021/03/08 00:35:34;;;;;;;8.13;3.95;;;;;;;2.48;59.28;99967.22;4984113;28;20090;-72
2021/03/08 00:38:01;;;;;;;7.97;4.13;;;;;;;2.46;59.48;99958.56;4983681;28;20126;-70
2021/03/08 00:40:28;;;;;;;8.13;4.50;;;;;;;2.47;59.13;99957.69;4984914;28;20228;-73
2021/03/08 00:42:54;;;;;;;7.38;3.63;;;;;;;2.53;59.37;99958.31;4984519;28;20185;-71
2021/03/08 00:45:22;;;;;;;8.68;4.00;;;;;;;2.52;59.19;99959.22;4990496;28;20138;-73
2021/03/08 00:47:49;;;;;;;7.18;4.80;;;;;;;2.51;59.50;99967.97;5004380;28;20186;-71
2021/03/08 00:50:17;;;;;;;12.23;4.70;;;;;;;2.51;59.34;99963.59;5007247;28;20128;-69
2021/03/08 00:52:44;;;;;;;8.35;3.60;;;;;;;2.56;59.38;99955.59;5007218;28;20054;-69
2021/03/08 00:55:11;;;;;;;7.82;4.57;;;;;;;2.55;59.50;99961.72;5006513;28;20088;-69
2021/03/08 00:57:39;;;;;;;9.57;5.75;;;;;;;2.51;59.38;99962.78;5008041;28;20581;-69
2021/03/08 01:00:08;;;;;;;6.75;4.57;;;;;;;2.46;59.45;99968.16;5006844;28;20125;-69
2021/03/08 01:02:37;;;;;;;6.82;3.95;;;;;;;2.44;59.36;99963.03;5008197;28;20565;-68
2021/03/08 01:05:05;;;;;;;7.95;4.35;;;;;;;2.48;59.59;99967.22;5008461;28;20100;-68
2021/03/08 01:07:31;;;;;;;10.48;5.32;;;;;;;2.43;59.75;99969.16;5009405;28;20088;-70
2021/03/08 01:09:58;;;;;;;7.53;4.78;;;;;;;2.41;59.73;99952.75;5010092;28;20081;-69
2021/03/08 01:12:24;;;;;;;7.88;5.22;;;;;;;2.36;59.72;99959.03;5008962;28;20056;-69
2021/03/08 01:14:52;;;;;;;8.23;5.03;;;;;;;2.36;59.94;99966.88;5008744;28;20058;-71
2021/03/08 01:17:18;;;;;;;9.40;5.30;;;;;;;2.35;59.75;99962.59;5008602;28;20138;-69
2021/03/08 01:19:45;;;;;;;6.68;4.72;;;;;;;2.34;60.06;99959.13;5007250;28;20137;-72
2021/03/08 01:22:11;;;;;;;7.90;5.28;;;;;;;2.33;60.14;99959.19;5008341;28;20148;-69
2021/03/08 01:24:38;;;;;;;8.52;4.65;;;;;;;2.32;59.87;99953.13;4988651;28;20578;-70
2021/03/08 01:27:05;;;;;;;7.80;4.60;;;;;;;2.32;60.09;99953.13;4998607;28;20057;-69
2021/03/08 01:29:32;;;;;;;9.93;6.28;;;;;;;2.23;60.33;99956.13;5027738;28;20057;-71
2021/03/08 01:31:59;;;;;;;6.95;4.95;;;;;;;2.23;60.38;99953.53;5028317;28;20128;-71
2021/03/08 01:34:26;;;;;;;7.90;5.55;;;;;;;2.17;60.56;99954.63;5028316;28;20057;-71
2021/03/08 01:36:52;;;;;;;7.60;5.20;;;;;;;2.03;60.96;99951.75;5028376;28;20146;-70
2021/03/08 01:39:19;;;;;;;6.45;4.85;;;;;;;1.99;61.22;99953.66;5027170;28;20506;-71
2021/03/08 01:41:45;;;;;;;14.63;6.05;;;;;;;1.87;61.57;99959.38;5027221;28;20164;-68
2021/03/08 01:44:12;;;;;;;11.52;6.38;;;;;;;1.80;61.39;99960.53;5027141;28;20192;-68
2021/03/08 01:46:39;;;;;;;10.88;7.57;;;;;;;1.66;62.00;99950.69;5027954;28;20101;-69
2021/03/08 01:49:06;;;;;;;9.10;5.78;;;;;;;1.70;61.80;99963.50;5029508;28;20132;-68
2021/03/08 01:51:33;;;;;;;8.48;6.10;;;;;;;1.66;62.12;99961.94;5029879;28;20553;-69
2021/03/08 01:53:59;;;;;;;9.27;6.60;;;;;;;1.55;62.61;99953.72;5025845;28;20132;-70
2021/03/08 01:56:26;;;;;;;10.90;7.03;;;;;;;1.51;62.57;99954.75;5027317;28;20129;-70
2021/03/08 01:58:53;;;;;;;14.65;8.27;;;;;;;1.45;62.88;99957.59;5027513;28;20615;-72
2021/03/08 02:01:20;;;;;;;12.20;7.57;;;;;;;1.44;63.11;99961.09;5027205;28;20061;-68
2021/03/08 02:03:46;;;;;;;10.43;6.97;;;;;;;1.38;63.35;99964.78;5026324;28;20112;-67
2021/03/08 02:06:14;;;;;;;13.20;6.28;;;;;;;1.39;63.35;99961.28;5028680;28;20053;-68
2021/03/08 02:08:42;;;;;;;13.60;6.97;;;;;;;1.34;63.35;99958.88;5029310;28;20046;-68
2021/03/08 02:11:08;;;;;;;13.35;7.10;;;;;;;1.32;62.94;99955.47;5028080;28;20049;-68
2021/03/08 02:14:10;;;;;;;11.50;6.15;;;;;;;1.30;63.38;99959.91;5027745;28;20091;-69
2021/03/08 02:16:47;;;;;;;10.63;7.20;;;;;;;1.27;63.50;99957.41;4984814;28;20046;-71
2021/03/08 02:19:35;;;;;;;10.73;5.97;;;;;;;1.23;63.42;99963.66;4985173;28;20061;-68
2021/03/08 02:22:17;;;;;;;12.27;6.32;;;;;;;1.19;63.51;99963.81;4983999;28;20088;-69
2021/03/08 02:25:13;;;;;;;9.13;5.80;;;;;;;1.13;63.22;99963.16;4982118;28;20491;-68
2021/03/08 02:27:57;;;;;;;;;;;;;;;1.23;63.20;99965.41;4983819;28;20077;-68
2021/03/08 02:30:39;;;;;;;12.20;7.32;;;;;;;1.03;63.25;99966.16;4983959;28;19981;-68
2021/03/08 02:33:08;;;;;;;17.38;9.68;;;;;;;0.90;63.98;99964.03;4984328;28;20053;-69
2021/03/08 02:35:39;;;;;;;19.00;10.45;;;;;;;0.88;64.34;99971.03;4984419;28;20556;-69
2021/03/08 02:38:08;;;;;;;19.55;10.95;;;;;;;0.83;64.48;99967.75;4984181;28;20057;-68
2021/03/08 02:40:38;;;;;;;17.48;9.40;;;;;;;0.83;64.76;99972.09;4985079;28;20573;-69
2021/03/08 02:43:09;;;;;;;16.73;9.25;;;;;;;0.79;64.45;99966.16;4985324;28;20098;-70
2021/03/08 02:45:37;;;;;;;18.85;10.30;;;;;;;0.75;64.44;99968.00;4984528;28;20050;-72
2021/03/08 02:48:04;;;;;;;17.58;10.35;;;;;;;0.73;64.65;99972.44;4984807;28;20747;-68
2021/03/08 02:50:35;;;;;;;16.50;10.73;;;;;;;0.71;64.84;99973.41;4985575;28;20050;-70
2021/03/08 02:53:05;;;;;;;22.58;12.82;;;;;;;0.68;64.90;99979.53;4993229;28;20053;-69
2021/03/08 02:55:39;;;;;;;19.70;12.60;;;;;;;0.65;64.95;99984.00;5025601;28;20056;-68
2021/03/08 02:58:08;;;;;;;27.90;15.20;;;;;;;0.62;65.04;99986.72;5028644;28;20448;-71
2021/03/08 03:00:36;;;;;;;26.85;14.63;;;;;;;0.57;64.93;99986.88;5033940;28;20053;-69
2021/03/08 03:03:06;;;;;;;27.77;13.40;;;;;;;0.54;64.99;99993.06;5036890;28;20038;-68
2021/03/08 03:05:34;;;;;;;24.58;14.30;;;;;;;0.51;65.18;99998.34;5038529;28;20045;-68
2021/03/08 03:08:02;;;;;;;16.52;10.00;;;;;;;0.50;65.19;100001.84;5039374;28;20045;-67
2021/03/08 03:10:31;;;;;;;25.10;11.45;;;;;;;0.48;65.13;100001.03;5040633;28;20052;-68
2021/03/08 03:13:00;;;;;;;24.27;12.98;;;;;;;0.44;65.46;100002.06;5039860;28;20052;-68
2021/03/08 03:15:27;;;;;;;25.13;12.13;;;;;;;0.36;65.36;100009.25;5040246;28;20465;-68
2021/03/08 03:17:57;;;;;;;20.98;12.25;;;;;;;0.41;65.21;100004.75;5041966;28;20049;-68
2021/03/08 03:20:24;;;;;;;22.60;13.25;;;;;;;0.40;65.56;100004.81;5034430;28;20056;-69
2021/03/08 03:22:52;;;;;;;23.05;11.73;;;;;;;0.38;65.54;100018.72;5029352;28;20616;-72
2021/03/08 03:25:23;;;;;;;18.48;12.00;;;;;;;0.36;65.61;100009.25;5027485;28;20045;-69
2021/03/08 03:27:50;;;;;;;19.23;13.55;;;;;;;0.27;65.69;100019.97;5028223;28;20056;-71
2021/03/08 03:30:21;;;;;;;20.38;11.27;;;;;;;0.21;65.93;100027.97;5029231;28;20096;-69
2021/03/08 03:32:48;;;;;;;30.48;15.80;;;;;;;0.15;66.21;100027.28;5011864;28;20049;-70
2021/03/08 03:35:17;;;;;;;23.58;16.75;;;;;;;0.10;66.37;100031.78;5029271;28;20410;-70
2021/03/08 03:37:45;;;;;;;24.83;14.20;;;;;;;0.11;66.54;100030.88;5028487;28;20045;-68
2021/03/08 03:40:14;;;;;;;19.23;12.77;;;;;;;0.08;66.35;100033.56;5026184;28;20037;-71
2021/03/08 03:42:43;;;;;;;22.02;14.65;;;;;;;0.07;66.35;100039.66;5026125;28;20107;-68
2021/03/08 03:45:11;;;;;;;21.67;13.73;;;;;;;0.08;66.12;100040.53;5026291;28;20049;-67
2021/03/08 03:47:39;;;;;;;25.50;15.98;;;;;;;0.04;66.30;100042.38;5025435;28;20531;-71
2021/03/08 03:50:07;;;;;;;20.92;14.40;;;;;;;0.02;66.31;100041.56;5025307;28;20048;-68
2021/03/08 03:52:35;;;;;;;17.05;11.73;;;;;;;0.03;66.55;100048.44;5026662;28;20453;-68
2021/03/08 03:55:03;;;;;;;25.17;15.65;;;;;;;-0.02;66.49;100046.03;5023620;28;20115;-69
2021/03/08 03:57:38;;;;;;;24.98;12.55;;;;;;;-0.02;66.71;100045.16;5026030;28;20045;-73
2021/03/08 04:00:07;;;;;;;22.80;13.23;;;;;;;-0.04;66.72;100046.94;5008390;28;20094;-69
2021/03/08 04:02:39;;;;;;;26.42;16.50;;;;;;;-0.06;66.74;100053.94;5025887;28;20106;-70
2021/03/08 04:05:08;;;;;;;21.33;13.32;;;;;;;-0.08;66.47;100053.16;5025065;28;20514;-69
2021/03/08 04:07:41;;;;;;;29.45;15.63;;;;;;;-0.09;66.64;100054.91;5025326;28;20099;-70
2021/03/08 04:10:13;;;;;;;19.80;11.80;;;;;;;-0.09;66.72;100054.91;5025016;28;20042;-69
2021/03/08 04:12:42;;;;;;;27.20;13.98;;;;;;;-0.10;66.43;100060.13;5025879;28;20037;-67
2021/03/08 04:15:11;;;;;;;34.10;16.33;;;;;;;-0.11;66.63;100061.03;5025684;28;20084;-70
2021/03/08 04:17:41;;;;;;;44.70;22.73;;;;;;;-0.13;66.66;100068.00;5025799;28;20049;-69
2021/03/08 04:20:13;;;;;;;26.55;16.17;;;;;;;-0.16;66.66;100065.50;5026130;28;20144;-70
2021/03/08 04:22:41;;;;;;;38.80;19.67;;;;;;;-0.18;66.79;100065.59;5026564;28;20053;-67
2021/03/08 04:25:10;;;;;;;29.23;14.88;;;;;;;-0.21;66.67;100071.69;5023912;28;20065;-67
2021/03/08 04:27:39;;;;;;;45.75;19.80;;;;;;;-0.24;66.63;100065.75;5026149;28;20370;-69
2021/03/08 04:30:07;;;;;;;44.13;21.30;;;;;;;-0.24;66.92;100073.53;5024560;28;20501;-69
2021/03/08 04:32:34;;;;;;;21.02;12.10;;;;;;;-0.26;66.72;100072.75;5025556;28;20048;-68
2021/03/08 04:35:00;;;;;;;46.40;20.10;;;;;;;-0.31;66.80;100078.06;5024945;28;20056;-69
2021/03/08 04:37:28;;;;;;;58.65;26.48;;;;;;;-0.33;67.23;100084.22;5024891;28;20118;-68
2021/03/08 04:39:55;;;;;;;60.30;28.33;;;;;;;-0.33;66.99;100087.63;5024015;28;20450;-68
2021/03/08 04:42:22;;;;;;;80.93;28.15;;;;;;;-0.34;67.18;100091.16;5025520;28;20053;-67
2021/03/08 04:44:50;;;;;;;75.53;29.17;;;;;;;-0.38;67.32;100094.72;5024154;28;20049;-70
2021/03/08 04:47:18;;;;;;;53.38;22.92;;;;;;;-0.39;66.92;100093.03;5024446;28;20045;-66
2021/03/08 04:49:46;;;;;;;58.60;28.67;;;;;;;-0.40;67.10;100101.69;5007407;28;20099;-68
2021/03/08 04:52:14;;;;;;;52.90;25.25;;;;;;;-0.42;67.38;100098.31;5023757;28;20075;-68
2021/03/08 04:54:43;;;;;;;66.43;29.92;;;;;;;-0.43;67.23;100101.81;5022851;28;20076;-66
2021/03/08 04:57:12;;;;;;;56.17;26.48;;;;;;;-0.44;67.42;100105.28;5024931;28;20362;-69
2021/03/08 04:59:39;;;;;;;74.93;36.33;;;;;;;-0.46;67.24;100105.31;5024804;28;20107;-69
2021/03/08 05:02:07;;;;;;;109.90;42.75;;;;;;;-0.47;67.67;100107.97;5024089;28;20064;-68
2021/03/08 05:04:37;;;;;;;83.63;38.47;;;;;;;-0.49;67.65;100112.34;5023581;28;20056;-68
2021/03/08 05:07:04;;;;;;;57.13;28.52;;;;;;;-0.49;67.58;100109.75;5023520;28;20050;-67
2021/03/08 05:09:30;;;;;;;53.15;24.90;;;;;;;-0.49;67.50;100109.75;5023716;28;20141;-69
2021/03/08 05:11:59;;;;;;;48.22;26.75;;;;;;;-0.49;67.61;100110.59;5022773;28;20045;-68
2021/03/08 05:14:28;;;;;;;85.47;34.75;;;;;;;-0.50;67.36;100102.88;5023868;28;20060;-68
2021/03/08 05:16:57;;;;;;;58.45;25.55;;;;;;;-0.50;67.35;100110.66;5024392;28;20057;-68
2021/03/08 05:19:24;;;;;;;96.30;39.40;;;;;;;-0.49;67.32;100117.53;5023304;28;20052;-69
2021/03/08 05:21:52;;;;;;;92.00;36.70;;;;;;;-0.49;67.55;100110.59;5023289;28;20053;-69
2021/03/08 05:24:20;;;;;;;65.68;30.65;;;;;;;-0.49;67.57;100113.19;5023941;28;20072;-69
2021/03/08 05:26:47;;;;;;;86.60;42.33;;;;;;;-0.50;67.38;100114.09;5021960;28;20157;-69
2021/03/08 05:29:14;;;;;;;81.82;36.58;;;;;;;-0.48;67.42;100114.06;5023662;28;20052;-67
2021/03/08 05:31:44;;;;;;;48.70;24.50;;;;;;;-0.46;67.56;100113.09;5023382;28;20639;-68
2021/03/08 05:34:13;;;;;;;29.88;18.20;;;;;;;-0.45;67.33;100117.41;5024940;28;20053;-70
2021/03/08 05:36:44;;;;;;;60.67;28.50;;;;;;;-0.43;67.69;100127.75;5026449;28;20053;-68
2021/03/08 05:39:11;;;;;;;57.72;28.58;;;;;;;-0.42;67.34;100125.09;5027320;28;20053;-68
2021/03/08 05:41:51;;;;;;;58.42;28.45;;;;;;;-0.31;67.27;100122.19;5026819;28;20130;-71
2021/03/08 05:44:19;;;;;;;33.95;20.00;;;;;;;-0.14;67.18;100121.69;5027353;28;20045;-67
2021/03/08 05:47:13;;;;;;;27.08;17.02;;;;;;;-0.06;66.96;100126.63;5028911;28;20048;-67
2021/03/08 05:50:02;;;;;;;31.88;17.13;;;;;;;-0.06;66.79;100126.63;5025429;28;20498;-69
2021/03/08 05:53:04;;;;;;;37.78;19.45;;;;;;;0.01;67.12;100138.53;5028681;28;20041;-69
2021/03/08 05:56:01;;;;;;;46.60;19.30;;;;;;;0.06;66.78;100139.25;4993667;28;20050;-70
2021/03/08 05:58:47;;;;;;;58.03;25.63;;;;;;;0.03;67.05;100139.34;5013382;28;20033;-71
2021/03/08 06:01:52;;;;;;;73.75;29.95;;;;;;;0.01;67.34;100141.13;5018396;28;20045;-67
2021/03/08 06:04:46;;;;;;;41.25;19.17;;;;;;;0.04;67.00;100148.84;5002996;28;20652;-68
2021/03/08 06:07:46;;;;;;;34.03;19.05;;;;;;;0.06;67.26;100148.78;4994276;28;20130;-69
2021/03/08 06:10:22;;;;;;;30.67;14.93;;;;;;;0.08;66.80;100150.44;5007139;28;20042;-68
2021/03/08 06:12:51;;;;;;;32.17;17.73;;;;;;;0.11;66.89;100159.84;5005353;28;20668;-73
2021/03/08 06:15:21;;;;;;;37.65;15.20;;;;;;;0.16;67.05;100165.78;5014322;28;20046;-68
2021/03/08 06:17:50;;;;;;;25.55;14.65;;;;;;;0.21;66.83;100173.44;5026218;28;20034;-73
2021/03/08 06:20:19;;;;;;;30.77;16.77;;;;;;;0.27;66.91;100173.22;5027416;28;20053;-68
2021/03/08 06:22:47;;;;;;;40.30;20.75;;;;;;;0.32;66.85;100179.97;5028065;28;20153;-76
2021/03/08 06:25:15;;;;;;;39.63;23.08;;;;;;;0.36;66.32;100180.72;5027355;28;20064;-71
2021/03/08 06:27:43;;;;;;;32.88;21.25;;;;;;;0.40;66.07;100184.94;5056293;28;20053;-69
2021/03/08 06:30:10;;;;;;;35.60;18.42;;;;;;;0.45;66.16;100185.66;5069250;28;20116;-73
2021/03/08 06:32:37;;;;;;;28.02;18.00;;;;;;;0.47;65.37;100191.66;5066178;28;20045;-68
2021/03/08 06:35:05;;;;;;;32.40;19.88;;;;;;;0.57;65.27;100187.00;5048929;28;20191;-70
2021/03/08 06:37:34;;;;;;;38.05;20.70;;;;;;;0.57;65.23;100190.44;5053615;28;20029;-68
2021/03/08 06:40:01;;;;;;;25.42;13.70;;;;;;;0.70;64.48;100192.66;5050377;28;20045;-66
2021/03/08 06:42:27;;;;;;;28.13;16.58;;;;;;;0.78;64.17;100198.44;5031929;28;20144;-69
2021/03/08 06:44:54;;;;;;;22.50;15.40;;;;;;;0.86;63.62;100191.22;5063654;28;20045;-68
2021/03/08 06:47:20;;;;;;;26.55;13.13;;;;;;;1.04;62.90;100212.31;5062836;28;20041;-69
2021/03/08 06:49:47;;;;;;;21.77;12.23;;;;;;;1.16;62.50;100221.47;5063339;28;20105;-71
2021/03/08 06:52:15;;;;;;;19.20;11.25;;;;;;;1.27;61.99;100217.59;5066974;28;20058;-71
2021/03/08 06:54:44;;;;;;;27.08;15.63;;;;;;;1.30;61.95;100221.84;5065028;28;20069;-71
2021/03/08 06:57:32;;;;;;;22.20;12.57;;;;;;;1.43;61.64;100217.91;5063280;28;20102;-70
2021/03/08 06:59:59;;;;;;;26.33;16.27;;;;;;;1.54;60.88;100217.53;5021305;28;20041;-70
2021/03/08 07:02:36;;;;;;;25.35;13.15;;;;;;;1.69;60.76;100223.94;5021703;28;20048;-71
2021/03/08 07:05:03;;;;;;;29.17;13.98;;;;;;;1.77;60.51;100223.66;5003510;28;20077;-70
2021/03/08 07:07:29;;;;;;;23.15;9.85;;;;;;;1.80;59.89;100223.53;4988743;28;20054;-70
2021/03/08 07:09:56;;;;;;;19.83;10.18;;;;;;;1.86;59.64;100225.94;5005552;28;20054;-72
2021/03/08 07:12:23;;;;;;;20.60;10.65;;;;;;;1.95;59.06;100228.19;5004963;28;20081;-72
2021/03/08 07:15:01;;;;;;;17.58;11.32;;;;;;;2.02;58.95;100227.06;5007495;28;20130;-71
2021/03/08 07:17:32;;;;;;;14.95;10.13;;;;;;;2.10;57.21;100230.19;4993729;28;20328;-72
2021/03/08 07:20:00;;;;;;;20.42;11.45;;;;;;;2.23;56.61;100229.75;5008634;28;20041;-70
2021/03/08 07:22:42;;;;;;;15.35;9.52;;;;;;;2.28;56.19;100230.41;5009059;28;20673;-70
2021/03/08 07:25:17;;;;;;;18.42;8.63;;;;;;;2.34;55.00;100227.59;5010760;28;20046;-71
2021/03/08 07:27:45;;;;;;;;;;;;;;;2.48;53.69;100229.63;5027120;28;20077;-68
2021/03/08 07:30:13;;;;;;;15.30;8.60;;;;;;;2.34;54.28;100227.59;5031368;28;19980;-71
2021/03/08 07:33:00;;;;;;;;;;;;;;;2.59;53.50;100231.81;5146437;27;20399;-70
2021/03/08 07:35:40;;;;;;;11.52;6.28;;;;;;;2.46;50.96;100226.25;5128349;28;19948;-69
2021/03/08 07:38:09;;;;;;;10.38;5.55;;;;;;;2.43;51.27;100232.44;5129990;28;20126;-72
2021/03/08 07:40:39;;;;;;;15.55;6.55;;;;;;;2.52;50.94;100226.03;5129439;28;20065;-72
2021/03/08 07:43:06;;;;;;;5.57;3.53;;;;;;;2.58;49.82;100227.53;5126116;28;20040;-70
2021/03/08 07:45:41;;;;;;;12.18;7.18;;;;;;;2.71;49.62;100226.13;5126344;28;20027;-68
2021/03/08 07:48:10;;;;;;;11.68;6.80;;;;;;;2.78;49.73;100235.38;5127109;28;20036;-69
2021/03/08 07:50:38;;;;;;;13.43;6.97;;;;;;;2.84;49.96;100229.91;5125982;28;20103;-73
2021/03/08 07:53:23;;;;;;;10.88;7.25;;;;;;;2.89;49.93;100229.75;5123921;28;20039;-70
2021/03/08 07:55:50;;;;;;;11.03;5.80;;;;;;;2.93;49.33;100225.25;5122369;28;20047;-68
2021/03/08 07:58:17;;;;;;;11.60;6.45;;;;;;;2.90;49.00;100226.22;5122191;28;20304;-68
2021/03/08 08:00:43;;;;;;;14.18;8.45;;;;;;;3.01;49.09;100231.00;5124198;28;20067;-68
2021/03/08 08:03:15;;;;;;;11.20;6.63;;;;;;;3.18;48.69;100238.94;5126008;28;20038;-70
2021/03/08 08:05:43;;;;;;;9.15;5.05;;;;;;;3.24;48.32;100241.31;5122208;28;20099;-71
2021/03/08 08:08:11;;;;;;;9.68;5.47;;;;;;;3.34;48.03;100241.75;5109937;28;20036;-69
2021/03/08 08:10:39;;;;;;;9.00;6.00;;;;;;;3.42;48.40;100244.91;5104340;28;20047;-68
2021/03/08 08:13:08;;;;;;;9.07;4.68;;;;;;;3.54;48.54;100246.13;5105161;28;20036;-68
2021/03/08 08:15:36;;;;;;;11.90;5.55;;;;;;;3.81;48.21;100251.06;5105985;28;20052;-68
2021/03/08 08:18:07;;;;;;;9.73;6.53;;;;;;;3.85;47.97;100243.94;5096988;28;20040;-70
2021/03/08 08:20:35;;;;;;;11.45;6.60;;;;;;;3.90;48.23;100250.63;5098248;28;20052;-75
2021/03/08 08:23:03;;;;;;;9.15;5.75;;;;;;;3.95;47.89;100255.69;5098268;28;20044;-69
2021/03/08 08:25:32;;;;;;;11.15;6.25;;;;;;;3.99;47.65;100254.63;5094607;28;20048;-71
2021/03/08 08:28:00;;;;;;;10.77;5.97;;;;;;;4.00;47.74;100258.94;5093164;28;20044;-74
2021/03/08 08:30:28;;;;;;;12.98;6.90;;;;;;;4.00;47.62;100249.31;5088734;28;20250;-70
2021/03/08 08:32:57;;;;;;;9.02;5.60;;;;;;;3.93;47.58;100265.34;5076470;28;20095;-70
2021/03/08 08:35:25;;;;;;;10.40;6.63;;;;;;;3.93;47.72;100260.97;5085501;28;20040;-71
2021/03/08 08:38:22;;;;;;;12.05;7.15;;;;;;;3.92;47.72;100258.41;5084467;28;20047;-71
2021/03/08 08:41:08;;;;;;;9.82;5.63;;;;;;;3.82;47.79;100255.38;5084026;28;20044;-71
2021/03/08 08:43:35;;;;;;;14.63;6.53;;;;;;;3.71;48.23;100260.22;5079511;28;20052;-72
2021/03/08 08:46:23;;;;;;;11.05;5.78;;;;;;;3.74;48.86;100267.91;5082821;28;20049;-74
2021/03/08 08:49:15;;;;;;;10.65;4.75;;;;;;;3.69;47.41;100267.25;5068698;28;20044;-73
2021/03/08 08:51:47;;;;;;;11.55;7.30;;;;;;;3.66;48.27;100267.44;5050809;28;20339;-74
2021/03/08 08:54:46;;;;;;;11.10;5.93;;;;;;;3.75;48.86;100278.31;5067550;28;20047;-72
2021/03/08 08:57:19;;;;;;;13.93;6.13;;;;;;;3.91;48.21;100270.66;5066437;28;20052;-72
2021/03/08 09:00:08;;;;;;;9.15;4.63;;;;;;;3.97;47.95;100267.75;5066966;28;20175;-71
2021/03/08 09:02:39;;;;;;;8.65;5.20;;;;;;;4.10;47.23;100275.03;5052231;28;20064;-75
2021/03/08 09:05:41;;;;;;;8.95;4.90;;;;;;;4.27;46.86;100264.66;5071766;28;20562;-71
2021/03/08 09:08:31;;;;;;;12.20;4.93;;;;;;;4.35;46.26;100275.59;5065693;28;20389;-69
2021/03/08 09:11:01;;;;;;;7.32;4.03;;;;;;;4.40;44.44;100281.47;5065469;28;20045;-70
2021/03/08 09:13:30;;;;;;;11.27;4.60;;;;;;;4.27;44.64;100284.72;5068340;28;20086;-68
2021/03/08 09:16:00;;;;;;;8.23;3.42;;;;;;;4.32;44.35;100287.97;5075464;28;20127;-71
2021/03/08 09:18:34;;;;;;;5.75;3.88;;;;;;;4.25;43.80;100286.56;5066223;28;20054;-72
2021/03/08 09:21:23;;;;;;;11.60;5.13;;;;;;;4.48;43.62;100288.09;5063551;28;20134;-71
2021/03/08 09:23:50;;;;;;;10.35;4.68;;;;;;;4.58;44.01;100289.38;5061569;28;20106;-71
2021/03/08 09:26:17;;;;;;;6.70;4.50;;;;;;;4.62;44.24;100290.94;5063881;28;20068;-74
2021/03/08 09:28:50;;;;;;;7.53;4.40;;;;;;;4.65;43.47;100285.56;5063535;28;20049;-71
2021/03/08 09:31:23;;;;;;;8.77;4.15;;;;;;;4.67;44.05;100298.56;5061430;28;20068;-71
2021/03/08 09:33:49;;;;;;;8.35;4.30;;;;;;;4.78;44.10;100296.28;5075489;28;20048;-71
2021/03/08 09:36:17;;;;;;;8.25;4.40;;;;;;;4.87;43.47;100300.22;5082324;28;20047;-72
2021/03/08 09:38:44;;;;;;;8.80;4.07;;;;;;;4.88;43.88;100296.69;5083303;28;20105;-69
2021/03/08 09:41:11;;;;;;;7.15;3.63;;;;;;;5.11;42.92;100308.66;5084149;28;20040;-72
2021/03/08 09:43:38;;;;;;;5.90;2.90;;;;;;;5.25;42.24;100303.59;5081879;28;20457;-69
2021/03/08 09:46:07;;;;;;;11.23;4.82;;;;;;;5.58;41.39;100299.34;5089945;28;20059;-71
2021/03/08 09:48:38;;;;;;;5.53;2.70;;;;;;;5.74;40.02;100302.88;5090117;28;20646;-70
2021/03/08 09:51:07;;;;;;;10.00;4.50;;;;;;;5.88;40.93;100297.75;5092901;28;20051;-72
2021/03/08 09:53:36;;;;;;;7.97;3.13;;;;;;;5.82;40.60;100308.59;5083551;28;20170;-74
2021/03/08 09:56:06;;;;;;;9.07;3.28;;;;;;;5.82;40.25;100305.97;5082619;28;20048;-72
2021/03/08 09:58:34;;;;;;;7.95;3.10;;;;;;;5.67;39.21;100302.38;5060907;28;20049;-71
2021/03/08 10:01:10;;;;;;;11.77;3.80;;;;;;;5.54;39.67;100307.34;5058707;28;20052;-68
2021/03/08 10:03:38;;;;;;;13.35;5.68;;;;;;;5.44;40.24;100303.53;5081668;28;20295;-69
2021/03/08 10:06:05;;;;;;;8.75;4.40;;;;;;;5.45;40.97;100307.00;5060668;28;20036;-71
2021/03/08 10:08:32;;;;;;;11.50;4.80;;;;;;;5.57;41.39;100316.84;5058244;28;20060;-69
2021/03/08 10:11:00;;;;;;;7.40;3.97;;;;;;;5.42;41.13;100308.00;5055414;28;20045;-70
2021/03/08 10:13:27;;;;;;;8.48;3.33;;;;;;;5.22;40.47;100321.22;5052223;28;20055;-71
2021/03/08 10:15:56;;;;;;;11.43;3.80;;;;;;;5.02;41.54;100309.09;5062515;28;20045;-72
2021/03/08 10:18:25;;;;;;;9.10;4.40;;;;;;;4.93;41.98;100323.47;5062238;28;20045;-72
2021/03/08 10:20:55;;;;;;;16.65;4.30;;;;;;;4.80;42.74;100320.59;5060929;28;20565;-70
2021/03/08 10:23:25;;;;;;;11.80;3.92;;;;;;;4.74;42.39;100341.84;5059502;28;20052;-69
2021/03/08 10:25:52;;;;;;;9.95;6.03;;;;;;;4.64;42.24;100338.78;5055210;28;20135;-70
2021/03/08 10:28:20;;;;;;;9.18;4.38;;;;;;;4.63;43.01;100342.34;5064048;28;20188;-71
2021/03/08 10:30:48;;;;;;;6.80;3.55;;;;;;;4.63;42.93;100344.97;5060161;28;20060;-73
2021/03/08 10:33:19;;;;;;;10.27;5.03;;;;;;;4.68;43.35;100340.38;5046662;28;20048;-75
2021/03/08 10:35:47;;;;;;;10.43;5.38;;;;;;;4.58;43.84;100336.47;5079479;28;20469;-71
2021/03/08 10:38:22;;;;;;;8.32;5.15;;;;;;;4.46;44.24;100340.47;5079773;28;20046;-73
2021/03/08 10:40:49;;;;;;;14.02;6.38;;;;;;;4.42;44.10;100346.78;5078842;28;20048;-77
2021/03/08 10:43:15;;;;;;;9.93;4.75;;;;;;;4.37;43.74;100352.22;5079326;28;20532;-80
2021/03/08 10:45:47;;;;;;;6.70;3.80;;;;;;;4.33;42.64;100337.59;5077679;28;20130;-71
2021/03/08 10:48:14;;;;;;;5.93;3.33;;;;;;;4.24;44.27;100348.47;5079272;28;20105;-70
2021/03/08 10:50:43;;;;;;;8.18;3.75;;;;;;;4.28;44.59;100360.47;5076889;28;20044;-69
2021/03/08 10:53:09;;;;;;;7.22;4.18;;;;;;;4.32;44.56;100343.75;5077037;28;20201;-70
2021/03/08 10:55:37;;;;;;;7.25;4.30;;;;;;;4.45;43.61;100356.25;5069922;28;20048;-67
2021/03/08 10:58:04;;;;;;;6.15;3.95;;;;;;;4.46;43.51;100350.94;5058805;28;20056;-81
2021/03/08 11:00:31;;;;;;;9.48;3.92;;;;;;;4.46;43.63;100347.50;5057551;28;20049;-72
2021/03/08 11:02:59;;;;;;;8.27;4.65;;;;;;;4.59;43.42;100353.84;5058490;28;20851;-71
2021/03/08 11:05:26;;;;;;;6.32;3.85;;;;;;;4.64;43.46;100353.66;5053817;28;20917;-69
2021/03/08 11:07:54;;;;;;;9.13;5.25;;;;;;;4.57;43.63;100345.22;5055858;28;20077;-70
2021/03/08 11:10:32;;;;;;;13.85;6.75;;;;;;;4.67;44.47;100348.28;5056559;28;20305;-71
2021/03/08 11:13:04;;;;;;;9.18;3.95;;;;;;;4.73;42.38;100346.19;5051789;28;20048;-71
2021/03/08 11:15:31;;;;;;;13.85;5.68;;;;;;;4.73;42.73;100348.81;5054216;28;20124;-71
2021/03/08 11:17:58;;;;;;;8.80;5.32;;;;;;;4.88;43.05;100354.25;5049044;28;20260;-71
2021/03/08 11:20:28;;;;;;;7.72;3.35;;;;;;;4.92;42.88;100354.06;5056172;28;20737;-70
2021/03/08 11:22:59;;;;;;;6.05;2.97;;;;;;;4.91;42.66;100359.34;5039948;28;20417;-69
2021/03/08 11:25:32;;;;;;;7.10;3.00;;;;;;;5.01;42.96;100350.16;5036489;28;20057;-72
2021/03/08 11:27:58;;;;;;;9.63;4.60;;;;;;;5.01;43.16;100350.16;5039182;28;20109;-72
2021/03/08 11:30:26;;;;;;;7.43;4.07;;;;;;;5.03;41.63;100348.31;5055346;28;20050;-73
2021/03/08 11:32:55;;;;;;;10.35;5.07;;;;;;;4.99;42.71;100357.22;5059307;28;20066;-70
2021/03/08 11:35:25;;;;;;;12.18;5.95;;;;;;;5.17;41.94;100352.88;5076600;28;20543;-71
2021/03/08 11:37:53;;;;;;;7.10;3.80;;;;;;;5.40;42.14;100354.34;5076465;28;20318;-70
2021/03/08 11:40:22;;;;;;;9.13;5.32;;;;;;;5.70;41.28;100353.75;5077338;28;20123;-71
2021/03/08 11:42:49;;;;;;;6.95;4.35;;;;;;;6.05;41.57;100348.50;5074465;28;20052;-72